Time;durP1;ratioP1;P1;durP2;ratioP2;P2;SDS_P1;SDS_P2;PMS_P1;PMS_P2;Temp;Humidity;BMP_temperature;BMP_pressure;BME280_temperature;BME280_humidity;BME280_pressure;Samples;Min_cycle;Max_cycle;Signal;HPM_P1;HPM_P2
2021/07/08 00:01:55;;;;;;;6.70;3.42;;;18.10;86.00;;;;;;4912391;29;20028;-85
2021/07/08 00:04:21;;;;;;;5.35;3.60;;;18.10;85.80;;;;;;4931459;29;20024;-85
2021/07/08 00:06:46;;;;;;;12.38;3.80;;;18.10;86.60;;;;;;4897089;29;20399;-84
2021/07/08 00:09:12;;;;;;;8.88;3.95;;;18.00;86.10;;;;;;4912447;29;20043;-86
2021/07/08 00:11:38;;;;;;;8.13;3.80;;;18.00;86.00;;;;;;4914002;29;20096;-85
2021/07/08 00:14:04;;;;;;;10.90;3.50;;;18.00;85.70;;;;;;4912538;29;20036;-85
2021/07/08 00:16:30;;;;;;;6.05;3.38;;;18.00;86.30;;;;;;4911916;29;20491;-85
2021/07/08 00:18:55;;;;;;;13.73;4.40;;;18.00;85.40;;;;;;4911953;29;20159;-84
2021/07/08 00:21:21;;;;;;;7.95;3.90;;;18.00;86.70;;;;;;4909346;29;20039;-85
2021/07/08 00:23:47;;;;;;;10.85;3.75;;;18.00;86.30;;;;;;4893391;29;20040;-86
2021/07/08 00:26:12;;;;;;;4.88;3.28;;;18.00;86.00;;;;;;4898413;29;20167;-86
2021/07/08 00:28:38;;;;;;;6.28;3.70;;;18.00;85.90;;;;;;4911794;29;20103;-85
2021/07/08 00:31:04;;;;;;;5.22;3.28;;;18.00;86.80;;;;;;4927914;29;20483;-85
2021/07/08 00:33:29;;;;;;;6.47;3.47;;;18.00;86.00;;;;;;4911054;29;20558;-86
2021/07/08 00:35:56;;;;;;;10.73;3.50;;;17.90;86.10;;;;;;4912086;29;20032;-85
2021/07/08 00:38:21;;;;;;;9.85;3.85;;;17.90;86.00;;;;;;4911691;29;20483;-85
2021/07/08 00:40:47;;;;;;;13.63;3.90;;;17.90;86.10;;;;;;4909016;29;20035;-85
2021/07/08 00:43:13;;;;;;;8.10;3.70;;;17.90;86.00;;;;;;4907054;29;20139;-85
2021/07/08 00:45:39;;;;;;;8.55;3.45;;;17.90;85.80;;;;;;4893177;29;20044;-85
2021/07/08 00:48:04;;;;;;;6.68;3.40;;;17.90;85.20;;;;;;4896988;29;20435;-85
2021/07/08 00:50:33;;;;;;;7.95;3.50;;;18.00;86.40;;;;;;4896651;29;20347;-85
2021/07/08 00:52:58;;;;;;;9.00;3.40;;;18.00;87.20;;;;;;4893052;29;20067;-85
2021/07/08 00:55:24;;;;;;;8.13;3.10;;;18.00;86.50;;;;;;4911882;29;20108;-85
2021/07/08 00:57:54;;;;;;;11.07;4.32;;;17.90;86.30;;;;;;4892598;29;20205;-85
2021/07/08 01:00:28;;;;;;;8.80;3.63;;;17.90;86.50;;;;;;4908826;29;20020;-85
2021/07/08 01:02:54;;;;;;;8.93;3.38;;;17.90;86.30;;;;;;4908186;29;20100;-85
2021/07/08 01:05:26;;;;;;;6.72;3.45;;;17.90;86.40;;;;;;4911395;29;20516;-85
2021/07/08 01:07:51;;;;;;;7.78;3.70;;;17.90;86.30;;;;;;4912237;29;20028;-85
2021/07/08 01:10:17;;;;;;;7.45;3.47;;;17.90;86.60;;;;;;4911732;29;20036;-85
2021/07/08 01:12:42;;;;;;;5.65;3.63;;;17.90;85.80;;;;;;4911818;29;20028;-85
2021/07/08 01:15:10;;;;;;;8.88;3.53;;;17.90;86.40;;;;;;4911087;29;20036;-85
2021/07/08 01:17:36;;;;;;;10.57;4.30;;;17.90;86.10;;;;;;4895500;29;20032;-85
2021/07/08 01:20:02;;;;;;;5.82;3.45;;;17.90;86.50;;;;;;4911380;29;20028;-86
2021/07/08 01:22:27;;;;;;;6.78;3.47;;;17.80;86.10;;;;;;4892813;29;20047;-84
2021/07/08 01:24:52;;;;;;;9.27;3.80;;;17.80;86.10;;;;;;4907952;29;20487;-85
2021/07/08 01:27:18;;;;;;;5.93;4.00;;;17.80;86.90;;;;;;4907995;29;20072;-84
2021/07/08 01:29:45;;;;;;;7.15;3.83;;;17.80;86.10;;;;;;4902213;29;20099;-85
2021/07/08 01:32:10;;;;;;;8.05;3.70;;;17.80;86.30;;;;;;4892126;29;20039;-85
2021/07/08 01:34:36;;;;;;;7.45;3.47;;;17.80;86.60;;;;;;4909768;29;20036;-86
2021/07/08 01:37:02;;;;;;;7.57;3.58;;;17.70;86.30;;;;;;4896238;29;20035;-85
2021/07/08 01:39:27;;;;;;;6.60;3.30;;;17.70;85.90;;;;;;4895542;29;20028;-85
2021/07/08 01:41:53;;;;;;;8.48;3.70;;;17.70;86.10;;;;;;4892727;29;20047;-86
2021/07/08 01:44:18;;;;;;;5.07;3.47;;;17.60;86.60;;;;;;4907903;29;20514;-85
2021/07/08 01:46:44;;;;;;;4.35;3.38;;;17.60;86.60;;;;;;4908226;29;20775;-86
2021/07/08 01:49:10;;;;;;;7.85;3.72;;;17.60;86.80;;;;;;4911206;29;20032;-85
2021/07/08 01:51:35;;;;;;;6.18;3.80;;;17.60;86.50;;;;;;4895747;29;20031;-85
2021/07/08 01:54:02;;;;;;;9.77;4.20;;;17.60;86.80;;;;;;4892591;29;20037;-85
2021/07/08 01:56:27;;;;;;;7.30;4.20;;;17.60;86.80;;;;;;4897688;29;20040;-85
2021/07/08 01:58:53;;;;;;;5.55;3.30;;;17.60;87.30;;;;;;4895929;29;20032;-85
2021/07/08 02:01:20;;;;;;;9.23;4.32;;;17.60;86.90;;;;;;4896393;29;20614;-85
2021/07/08 02:03:45;;;;;;;10.75;4.07;;;17.60;87.80;;;;;;4890365;29;20108;-85
2021/07/08 02:06:11;;;;;;;6.15;3.40;;;17.60;86.90;;;;;;4908553;29;20132;-86
2021/07/08 02:08:36;;;;;;;7.65;4.03;;;17.70;86.90;;;;;;4910838;29;20466;-86
2021/07/08 02:11:03;;;;;;;6.45;3.58;;;17.60;86.70;;;;;;4911309;29;20036;-87
2021/07/08 02:13:29;;;;;;;9.68;4.13;;;17.50;87.00;;;;;;4895369;29;20036;-85
2021/07/08 02:15:55;;;;;;;6.60;3.75;;;17.60;87.10;;;;;;4913196;29;20035;-86
2021/07/08 02:18:20;;;;;;;8.10;4.65;;;17.60;87.00;;;;;;4914360;29;20032;-85
2021/07/08 02:20:46;;;;;;;8.40;4.10;;;17.60;87.40;;;;;;4914469;29;20032;-86
2021/07/08 02:23:11;;;;;;;10.23;4.20;;;17.60;87.20;;;;;;4915109;29;20036;-86
2021/07/08 02:25:37;;;;;;;7.68;4.28;;;17.50;87.40;;;;;;4914628;29;20028;-85
2021/07/08 02:28:02;;;;;;;8.07;3.90;;;17.50;88.20;;;;;;4913851;29;20064;-84
2021/07/08 02:30:28;;;;;;;6.82;4.00;;;17.50;87.50;;;;;;4914082;29;20660;-85
2021/07/08 02:32:56;;;;;;;7.13;4.53;;;17.50;86.90;;;;;;4914923;29;20036;-85
2021/07/08 02:35:23;;;;;;;7.72;4.13;;;17.40;87.00;;;;;;4899230;29;20176;-86
2021/07/08 02:37:49;;;;;;;6.43;3.97;;;17.40;86.90;;;;;;4905491;29;20051;-86
2021/07/08 02:40:19;;;;;;;7.57;4.32;;;17.40;87.20;;;;;;4899413;29;20068;-86
2021/07/08 02:42:52;;;;;;;9.23;4.35;;;17.30;87.70;;;;;;4898795;29;20028;-85
2021/07/08 02:45:22;;;;;;;12.70;4.35;;;17.30;87.90;;;;;;4900334;29;20739;-85
2021/07/08 02:47:48;;;;;;;8.95;4.18;;;17.30;88.00;;;;;;4913561;29;20478;-85
2021/07/08 02:50:15;;;;;;;7.18;3.97;;;17.20;87.90;;;;;;4914370;29;20036;-84
2021/07/08 02:52:41;;;;;;;5.80;4.07;;;17.20;87.80;;;;;;4913745;29;20051;-86
2021/07/08 02:55:07;;;;;;;8.48;4.18;;;17.20;88.20;;;;;;4913657;29;20514;-85
2021/07/08 02:57:32;;;;;;;7.63;4.20;;;17.10;87.50;;;;;;4897424;29;20048;-85
2021/07/08 02:59:58;;;;;;;8.65;4.28;;;17.10;87.30;;;;;;4913446;29;20032;-86
2021/07/08 03:02:23;;;;;;;8.73;4.28;;;17.10;87.90;;;;;;4914289;29;20031;-85
2021/07/08 03:04:49;;;;;;;7.32;4.25;;;17.10;87.70;;;;;;4898465;29;20028;-85
2021/07/08 03:07:16;;;;;;;5.68;3.92;;;17.10;87.90;;;;;;4913512;29;20043;-86
2021/07/08 03:09:41;;;;;;;6.32;4.03;;;17.00;88.30;;;;;;4913702;29;20116;-85
2021/07/08 03:12:07;;;;;;;6.15;4.07;;;17.10;88.40;;;;;;4913584;29;20127;-85
2021/07/08 03:14:33;;;;;;;5.32;4.47;;;17.10;88.30;;;;;;4913950;29;20032;-85
2021/07/08 03:16:58;;;;;;;9.38;4.65;;;17.10;88.50;;;;;;4913893;29;20582;-85
2021/07/08 03:19:24;;;;;;;9.18;4.35;;;17.10;89.00;;;;;;4913305;29;20032;-84
2021/07/08 03:21:49;;;;;;;6.32;3.78;;;17.10;88.40;;;;;;4913171;29;20028;-85
2021/07/08 03:24:15;;;;;;;9.73;4.47;;;17.00;87.90;;;;;;4896717;29;20028;-85
2021/07/08 03:26:41;;;;;;;9.05;4.00;;;17.00;88.60;;;;;;4898279;29;20086;-85
2021/07/08 03:29:06;;;;;;;11.38;4.07;;;17.00;88.40;;;;;;4894072;29;20029;-85
2021/07/08 03:31:32;;;;;;;8.80;4.15;;;17.00;88.20;;;;;;4921574;29;20111;-85
2021/07/08 03:33:57;;;;;;;8.73;3.97;;;17.00;89.30;;;;;;4932801;29;20095;-86
2021/07/08 03:36:23;;;;;;;7.40;4.32;;;17.00;87.90;;;;;;4913617;29;20040;-85
2021/07/08 03:38:48;;;;;;;8.18;4.57;;;16.90;88.40;;;;;;4929048;29;20036;-85
2021/07/08 03:41:18;;;;;;;8.07;4.38;;;16.90;89.10;;;;;;4913096;29;20060;-85
2021/07/08 03:43:43;;;;;;;9.30;4.80;;;16.90;88.40;;;;;;4913177;29;20032;-85
2021/07/08 03:46:09;;;;;;;5.15;4.43;;;16.90;88.80;;;;;;4897215;29;20040;-85
2021/07/08 03:48:35;;;;;;;5.00;3.88;;;16.90;89.30;;;;;;4909706;29;20020;-85
2021/07/08 03:51:01;;;;;;;8.98;4.85;;;16.80;88.80;;;;;;4912340;29;20035;-86
2021/07/08 03:53:32;;;;;;;5.65;4.05;;;16.80;88.40;;;;;;4894541;29;20033;-85
2021/07/08 03:55:57;;;;;;;8.13;4.50;;;16.80;88.60;;;;;;4911382;29;20068;-85
2021/07/08 03:58:23;;;;;;;9.35;5.00;;;16.80;88.80;;;;;;4912157;29;20319;-86
2021/07/08 04:00:48;;;;;;;8.55;4.63;;;16.80;88.60;;;;;;4896305;29;20115;-86
2021/07/08 04:03:15;;;;;;;6.05;4.43;;;16.80;88.70;;;;;;4897061;29;20626;-85
2021/07/08 04:05:41;;;;;;;7.78;4.90;;;16.80;89.10;;;;;;4896878;29;20020;-85
2021/07/08 04:08:07;;;;;;;7.13;4.05;;;16.80;88.40;;;;;;4896854;29;20660;-87
2021/07/08 04:10:35;;;;;;;9.75;4.95;;;16.80;88.50;;;;;;4893520;29;20040;-84
2021/07/08 04:13:01;;;;;;;4.93;3.85;;;16.70;88.50;;;;;;4893967;29;20044;-84
2021/07/08 04:15:27;;;;;;;8.95;5.07;;;16.70;89.00;;;;;;4893978;29;20036;-86
2021/07/08 04:17:52;;;;;;;9.10;5.03;;;16.80;88.80;;;;;;4907538;29;20071;-85
2021/07/08 04:20:19;;;;;;;8.15;4.45;;;16.70;89.00;;;;;;4896901;29;20084;-85
2021/07/08 04:22:45;;;;;;;5.70;4.35;;;16.70;89.00;;;;;;4896718;29;20046;-85
2021/07/08 04:25:11;;;;;;;7.30;4.90;;;16.70;89.50;;;;;;4897249;29;20024;-84
2021/07/08 04:27:37;;;;;;;6.85;4.75;;;16.80;89.20;;;;;;4896336;29;20448;-85
2021/07/08 04:30:04;;;;;;;12.70;5.03;;;16.80;89.20;;;;;;4897044;29;20125;-85
2021/07/08 04:32:29;;;;;;;6.75;4.85;;;16.80;89.10;;;;;;4896747;29;20054;-84
2021/07/08 04:34:55;;;;;;;7.15;4.88;;;16.80;89.00;;;;;;4896586;29;20566;-86
2021/07/08 04:37:20;;;;;;;9.68;4.93;;;16.90;89.20;;;;;;4895674;29;20036;-85
2021/07/08 04:39:47;;;;;;;8.18;4.72;;;16.90;89.50;;;;;;4895841;29;20039;-85
2021/07/08 04:42:12;;;;;;;9.43;4.65;;;17.00;89.40;;;;;;4896270;29;20029;-85
2021/07/08 04:44:38;;;;;;;9.55;5.57;;;17.00;89.40;;;;;;4896309;29;20028;-84
2021/07/08 04:47:04;;;;;;;6.75;4.90;;;17.00;89.40;;;;;;4896040;29;20773;-86
2021/07/08 04:49:29;;;;;;;7.85;5.35;;;17.00;89.30;;;;;;4896184;29;20028;-84
2021/07/08 04:51:55;;;;;;;14.23;5.22;;;17.00;89.40;;;;;;4896313;29;20128;-85
2021/07/08 04:54:20;;;;;;;11.15;5.50;;;17.10;89.70;;;;;;4896467;29;20024;-85
2021/07/08 04:56:46;;;;;;;9.07;5.40;;;17.10;89.60;;;;;;4896022;29;20040;-86
2021/07/08 04:59:11;;;;;;;8.55;5.80;;;17.10;89.60;;;;;;4892629;29;20036;-85
2021/07/08 05:01:37;;;;;;;9.55;5.57;;;17.20;89.60;;;;;;4904997;29;20043;-84
2021/07/08 05:04:03;;;;;;;9.93;5.20;;;17.10;89.60;;;;;;4892419;29;20041;-85
2021/07/08 05:06:28;;;;;;;7.45;5.45;;;17.20;90.20;;;;;;4892583;29;20028;-84
2021/07/08 05:08:55;;;;;;;11.25;5.88;;;17.20;89.80;;;;;;4910483;29;20068;-85
2021/07/08 05:11:22;;;;;;;13.65;5.95;;;17.30;89.90;;;;;;4896027;29;20058;-84
2021/07/08 05:13:48;;;;;;;9.77;5.38;;;17.30;90.00;;;;;;4896434;29;20051;-85
2021/07/08 05:16:13;;;;;;;10.13;5.93;;;17.30;90.20;;;;;;4896723;29;20028;-84
2021/07/08 05:18:39;;;;;;;10.43;5.95;;;17.40;90.10;;;;;;4895801;29;20055;-85
2021/07/08 05:21:04;;;;;;;8.77;6.30;;;17.40;90.10;;;;;;4895666;29;20772;-85
2021/07/08 05:23:31;;;;;;;11.52;6.40;;;17.40;90.10;;;;;;4895792;29;20035;-86
2021/07/08 05:25:57;;;;;;;11.60;5.40;;;17.40;90.20;;;;;;4896284;29;20123;-85
2021/07/08 05:28:22;;;;;;;11.15;5.97;;;17.50;90.20;;;;;;4895782;29;20445;-85
2021/07/08 05:30:48;;;;;;;12.43;6.57;;;17.50;90.20;;;;;;4892524;29;20079;-85
2021/07/08 05:33:13;;;;;;;12.40;6.85;;;17.50;90.30;;;;;;4892769;29;20036;-85
2021/07/08 05:35:39;;;;;;;10.32;6.78;;;17.60;90.20;;;;;;4893293;29;20092;-86
2021/07/08 05:38:06;;;;;;;15.02;7.20;;;17.60;90.20;;;;;;4893212;29;20733;-86
2021/07/08 05:40:32;;;;;;;14.35;7.63;;;17.70;90.20;;;;;;4893494;29;20059;-85
2021/07/08 05:42:57;;;;;;;12.93;7.65;;;17.70;90.10;;;;;;4892947;29;20080;-85
2021/07/08 05:45:23;;;;;;;14.13;7.30;;;17.70;90.10;;;;;;4893273;29;20031;-86
2021/07/08 05:47:48;;;;;;;14.20;7.07;;;17.70;90.10;;;;;;4892971;29;20025;-86
2021/07/08 05:50:14;;;;;;;14.15;6.93;;;17.80;90.00;;;;;;4911573;29;20042;-85
2021/07/08 05:52:39;;;;;;;17.85;7.75;;;17.80;90.20;;;;;;4899645;29;20036;-86
2021/07/08 05:55:05;;;;;;;16.77;8.45;;;17.80;90.00;;;;;;4899346;29;20185;-86
2021/07/08 05:57:31;;;;;;;16.80;6.82;;;17.80;89.80;;;;;;4898870;29;20111;-87
2021/07/08 05:59:56;;;;;;;12.55;6.80;;;17.90;89.60;;;;;;4899206;29;20740;-86
2021/07/08 06:02:22;;;;;;;10.13;7.03;;;17.90;89.70;;;;;;4899385;29;20522;-85
2021/07/08 06:04:48;;;;;;;12.15;7.22;;;17.90;89.80;;;;;;4899542;29;20024;-86
2021/07/08 06:07:13;;;;;;;16.25;7.28;;;17.90;90.00;;;;;;4900029;29;20087;-85
2021/07/08 06:09:39;;;;;;;12.45;7.22;;;17.90;90.00;;;;;;4899072;29;20039;-85
2021/07/08 06:12:05;;;;;;;15.93;6.70;;;18.00;90.00;;;;;;4899052;29;20035;-85
2021/07/08 06:14:30;;;;;;;14.90;6.97;;;18.00;90.10;;;;;;4898901;29;20040;-85
2021/07/08 06:16:56;;;;;;;13.40;7.72;;;18.00;90.00;;;;;;4898722;29;20028;-85
2021/07/08 06:19:21;;;;;;;16.48;7.65;;;18.00;90.10;;;;;;4899002;29;20024;-86
2021/07/08 06:21:48;;;;;;;20.02;7.82;;;18.10;90.20;;;;;;4898699;29;20032;-85
2021/07/08 06:24:15;;;;;;;13.50;7.15;;;18.10;90.20;;;;;;4899125;29;20119;-85
2021/07/08 06:26:40;;;;;;;20.98;7.40;;;18.10;90.10;;;;;;4898729;29;20031;-86
2021/07/08 06:29:06;;;;;;;13.43;7.45;;;18.10;90.00;;;;;;4898924;29;20028;-86
2021/07/08 06:31:31;;;;;;;20.23;7.35;;;18.20;89.80;;;;;;4899019;29;20039;-85
2021/07/08 06:33:57;;;;;;;17.08;7.18;;;18.20;89.50;;;;;;4898657;29;20095;-85
2021/07/08 06:36:22;;;;;;;13.63;7.20;;;18.20;89.50;;;;;;4898530;29;20629;-85
2021/07/08 06:38:48;;;;;;;12.50;7.35;;;18.30;89.50;;;;;;4898317;29;20064;-86
2021/07/08 06:41:13;;;;;;;15.55;7.80;;;18.30;89.80;;;;;;4898447;29;20059;-85
2021/07/08 06:43:39;;;;;;;19.27;8.00;;;18.30;89.60;;;;;;4898065;29;20516;-86
2021/07/08 06:46:04;;;;;;;18.70;8.00;;;18.40;88.90;;;;;;4898414;29;20032;-86
2021/07/08 06:48:30;;;;;;;16.33;7.88;;;18.40;88.30;;;;;;4898141;29;20024;-85
2021/07/08 06:50:55;;;;;;;19.40;7.07;;;18.40;88.20;;;;;;4898190;29;20035;-85
2021/07/08 06:53:21;;;;;;;12.52;7.55;;;18.50;87.80;;;;;;4898544;29;20483;-85
2021/07/08 06:55:47;;;;;;;13.20;7.38;;;18.50;87.10;;;;;;4898424;29;20042;-86
2021/07/08 06:58:13;;;;;;;12.43;7.22;;;18.50;86.50;;;;;;4898290;29;20040;-85
2021/07/08 07:00:41;;;;;;;13.68;7.45;;;18.50;86.50;;;;;;4897682;29;20032;-85
2021/07/08 07:03:06;;;;;;;16.45;7.10;;;18.60;86.60;;;;;;4898668;29;20020;-85
2021/07/08 07:05:32;;;;;;;17.50;7.47;;;18.60;86.90;;;;;;4897872;29;20452;-85
2021/07/08 07:07:58;;;;;;;16.20;6.93;;;18.70;85.90;;;;;;4897655;29;20024;-86
2021/07/08 07:10:26;;;;;;;13.63;6.88;;;18.70;85.80;;;;;;4898088;29;20032;-85
2021/07/08 07:12:52;;;;;;;14.07;6.03;;;18.70;85.80;;;;;;4897746;29;20032;-85
2021/07/08 07:15:19;;;;;;;12.77;6.18;;;18.80;84.70;;;;;;4898033;29;20866;-86
2021/07/08 07:17:47;;;;;;;11.23;5.43;;;18.80;82.70;;;;;;4897429;29;20024;-88
2021/07/08 07:20:13;;;;;;;12.05;5.72;;;18.90;83.90;;;;;;4898309;29;20127;-86
2021/07/08 07:22:39;;;;;;;8.13;5.28;;;19.00;83.60;;;;;;4897644;29;20035;-85
2021/07/08 07:25:06;;;;;;;14.43;5.80;;;19.00;83.70;;;;;;4897492;29;20029;-85
2021/07/08 07:27:31;;;;;;;11.60;5.53;;;19.00;83.60;;;;;;4897453;29;20028;-85
2021/07/08 07:30:00;;;;;;;10.40;5.60;;;19.00;83.30;;;;;;4897415;29;20472;-85
2021/07/08 07:32:25;;;;;;;10.70;5.57;;;19.10;82.50;;;;;;4897614;29;20145;-85
2021/07/08 07:34:51;;;;;;;9.80;5.90;;;19.10;82.20;;;;;;4897135;29;20120;-85
2021/07/08 07:37:16;;;;;;;8.55;5.00;;;19.10;82.00;;;;;;4896620;29;20030;-85
2021/07/08 07:39:42;;;;;;;10.70;5.25;;;19.10;81.00;;;;;;4896880;29;20020;-85
2021/07/08 07:42:07;;;;;;;10.25;4.78;;;19.20;80.50;;;;;;4897096;29;20499;-85
2021/07/08 07:44:33;;;;;;;14.77;4.72;;;19.20;80.90;;;;;;4896346;29;20028;-86
2021/07/08 07:46:58;;;;;;;9.85;5.18;;;19.20;81.40;;;;;;4897178;29;20025;-85
2021/07/08 07:49:24;;;;;;;10.25;4.47;;;19.30;81.30;;;;;;4896608;29;20036;-85
2021/07/08 07:51:49;;;;;;;7.13;4.47;;;19.30;81.40;;;;;;4912910;29;20403;-85
2021/07/08 07:54:15;;;;;;;6.97;4.15;;;19.30;81.00;;;;;;4897460;29;20102;-85
2021/07/08 07:56:40;;;;;;;12.43;4.75;;;19.40;80.70;;;;;;4896725;29;20055;-86
2021/07/08 07:59:06;;;;;;;8.73;4.28;;;19.40;80.00;;;;;;4896709;29;20115;-86
2021/07/08 08:01:31;;;;;;;8.02;3.80;;;19.40;79.80;;;;;;4896579;29;20043;-85
2021/07/08 08:03:59;;;;;;;6.25;4.38;;;19.50;79.90;;;;;;4896582;29;20039;-85
2021/07/08 08:09:09;;;;;;;8.93;4.00;;;19.50;81.10;;;;;;4899188;29;20063;-85
2021/07/08 08:11:34;;;;;;;10.10;4.78;;;19.50;81.60;;;;;;4912033;29;20479;-85
2021/07/08 08:14:00;;;;;;;8.10;4.40;;;19.60;80.80;;;;;;4895561;29;20032;-85
2021/07/08 08:16:25;;;;;;;8.93;4.10;;;19.60;79.90;;;;;;4895918;29;20063;-85
2021/07/08 08:18:51;;;;;;;7.53;3.80;;;19.60;79.70;;;;;;4911083;29;20127;-85
2021/07/08 08:21:16;;;;;;;9.07;4.10;;;19.70;79.50;;;;;;4911961;29;20056;-84
2021/07/08 08:23:42;;;;;;;9.60;4.15;;;19.70;80.00;;;;;;4910803;29;20054;-85
2021/07/08 08:26:07;;;;;;;8.00;3.67;;;19.80;79.50;;;;;;4893192;29;20434;-85
2021/07/08 08:28:33;;;;;;;10.75;4.03;;;19.80;78.70;;;;;;4892544;29;20033;-85
2021/07/08 08:30:58;;;;;;;6.90;3.90;;;19.90;78.80;;;;;;4908863;29;20024;-85
2021/07/08 08:33:24;;;;;;;7.70;4.00;;;19.90;79.60;;;;;;4911843;29;20107;-84
2021/07/08 08:35:50;;;;;;;8.77;4.22;;;19.90;80.10;;;;;;4911755;29;20028;-85
2021/07/08 08:38:15;;;;;;;8.82;3.92;;;20.00;79.90;;;;;;4911180;29;20082;-85
2021/07/08 08:40:41;;;;;;;8.07;4.00;;;20.00;80.50;;;;;;4894775;29;20028;-85
2021/07/08 08:43:07;;;;;;;10.98;3.95;;;20.00;78.70;;;;;;4895823;29;20059;-85
2021/07/08 08:45:33;;;;;;;5.65;3.92;;;20.10;78.00;;;;;;4895246;29;20040;-85
2021/07/08 08:48:05;;;;;;;6.25;3.60;;;20.10;77.80;;;;;;4895534;29;20051;-85
2021/07/08 08:50:50;;;;;;;6.47;3.75;;;20.10;78.00;;;;;;4911363;29;20491;-85
2021/07/08 08:53:16;;;;;;;7.78;3.80;;;20.10;78.10;;;;;;4897838;29;20091;-85
2021/07/08 08:55:42;;;;;;;7.47;3.08;;;20.20;77.00;;;;;;4895422;29;20031;-85
2021/07/08 08:58:12;;;;;;;7.70;3.90;;;20.20;76.40;;;;;;4894615;29;20036;-85
2021/07/08 09:00:42;;;;;;;10.70;4.10;;;20.20;76.30;;;;;;4896119;29;20087;-85
2021/07/08 09:03:19;;;;;;;4.35;3.40;;;20.30;76.40;;;;;;4910550;29;20153;-85
2021/07/08 09:05:47;;;;;;;7.28;3.92;;;20.30;75.20;;;;;;4910677;29;20032;-85
2021/07/08 09:08:19;;;;;;;9.73;4.50;;;20.30;74.50;;;;;;4910242;29;20060;-85
2021/07/08 09:10:50;;;;;;;7.63;3.70;;;20.40;75.10;;;;;;4911141;29;20495;-86
2021/07/08 09:13:16;;;;;;;7.45;4.13;;;20.40;74.10;;;;;;4910992;29;20147;-85
2021/07/08 09:15:42;;;;;;;11.85;4.60;;;20.50;73.70;;;;;;4910969;29;20135;-86
2021/07/08 09:18:08;;;;;;;8.75;4.68;;;20.50;74.00;;;;;;4911108;29;20115;-85
2021/07/08 09:20:35;;;;;;;8.75;4.63;;;20.60;74.20;;;;;;4911013;29;20040;-85
2021/07/08 09:23:16;;;;;;;12.77;4.07;;;20.60;73.80;;;;;;4911233;29;20032;-85
2021/07/08 09:25:42;;;;;;;10.82;4.03;;;20.60;74.70;;;;;;4913725;29;20055;-85
2021/07/08 09:28:12;;;;;;;10.43;3.92;;;20.70;74.90;;;;;;4914162;29;20060;-85
2021/07/08 09:30:37;;;;;;;11.18;4.00;;;20.70;73.90;;;;;;4930316;29;20032;-85
2021/07/08 09:33:03;;;;;;;7.68;3.67;;;20.70;73.50;;;;;;4910877;29;20032;-85
2021/07/08 09:35:38;;;;;;;6.82;3.72;;;20.80;74.40;;;;;;4895471;29;20025;-85
2021/07/08 09:38:11;;;;;;;8.27;3.67;;;20.80;72.40;;;;;;4926854;29;20032;-85
2021/07/08 09:40:37;;;;;;;5.22;3.28;;;20.80;72.00;;;;;;4927020;29;20032;-87
2021/07/08 09:43:03;;;;;;;7.00;3.60;;;20.90;72.90;;;;;;4927134;29;20128;-86
2021/07/08 09:45:28;;;;;;;9.00;3.65;;;20.90;72.00;;;;;;4926163;29;20315;-86
2021/07/08 09:48:17;;;;;;;11.75;3.60;;;20.90;71.80;;;;;;4925836;29;20028;-86
2021/07/08 09:50:43;;;;;;;6.53;3.83;;;21.00;71.60;;;;;;4894932;29;20064;-87
2021/07/08 09:53:16;;;;;;;10.40;3.42;;;21.00;70.30;;;;;;4925981;29;20063;-85
2021/07/08 09:56:31;;;;;;;7.55;3.03;;;21.00;70.90;;;;;;4925995;29;20115;-86
2021/07/08 09:58:57;;;;;;;7.85;3.38;;;21.10;69.20;;;;;;4905540;29;20040;-86
2021/07/08 10:01:23;;;;;;;9.55;3.35;;;21.20;70.30;;;;;;4894708;29;20043;-87
2021/07/08 10:03:49;;;;;;;6.18;3.03;;;21.20;70.50;;;;;;4913044;29;20028;-87
2021/07/08 10:06:15;;;;;;;7.90;2.90;;;21.20;70.50;;;;;;4898726;29;20039;-86
2021/07/08 10:08:41;;;;;;;7.07;3.22;;;21.30;69.70;;;;;;4899175;29;20028;-86
2021/07/08 10:11:08;;;;;;;5.38;2.63;;;21.30;69.70;;;;;;4898900;29;20032;-86
2021/07/08 10:13:35;;;;;;;6.93;2.80;;;21.30;70.80;;;;;;4915899;29;20040;-86
2021/07/08 10:16:01;;;;;;;6.70;3.00;;;21.40;71.70;;;;;;4915134;29;20207;-86
2021/07/08 10:18:27;;;;;;;9.10;2.88;;;21.40;70.70;;;;;;4910385;29;20033;-85
2021/07/08 10:20:53;;;;;;;7.88;3.20;;;21.40;69.10;;;;;;4911718;29;20044;-85
2021/07/08 10:23:19;;;;;;;8.80;2.80;;;21.50;68.90;;;;;;4916741;29;20024;-86
2021/07/08 10:25:45;;;;;;;8.75;3.10;;;21.50;68.70;;;;;;4916202;29;20035;-86
2021/07/08 10:28:11;;;;;;;7.82;2.88;;;21.50;67.20;;;;;;4916302;29;20032;-86
2021/07/08 10:30:36;;;;;;;7.70;2.60;;;21.60;66.70;;;;;;4915751;29;20043;-89
2021/07/08 10:33:02;;;;;;;6.90;2.80;;;21.60;67.00;;;;;;4915977;29;20028;-86
2021/07/08 10:35:43;;;;;;;4.43;2.70;;;21.60;65.70;;;;;;4914962;29;20032;-85
2021/07/08 10:38:27;;;;;;;;;;;21.60;65.10;;;;;;4915262;29;20024;-86
2021/07/08 10:41:22;;;;;;;3.42;2.63;;;21.70;65.50;;;;;;4928636;29;19919;-87
2021/07/08 10:43:48;;;;;;;3.88;2.47;;;21.70;68.50;;;;;;4892910;29;20062;-86
2021/07/08 10:46:14;;;;;;;6.07;2.53;;;21.80;70.20;;;;;;4912733;29;20554;-87
2021/07/08 10:48:46;;;;;;;7.15;2.75;;;21.80;67.50;;;;;;4914260;29;20395;-85
2021/07/08 10:51:25;;;;;;;8.70;2.72;;;21.80;65.50;;;;;;4913236;29;20833;-85
2021/07/08 10:53:51;;;;;;;7.40;3.05;;;21.90;64.20;;;;;;4928683;29;20048;-85
2021/07/08 10:56:41;;;;;;;7.85;2.80;;;21.90;65.30;;;;;;4912751;29;20055;-86
2021/07/08 10:59:13;;;;;;;7.63;3.05;;;21.90;66.60;;;;;;4897702;29;20100;-86
2021/07/08 11:01:40;;;;;;;7.97;2.90;;;22.00;66.20;;;;;;4893069;29;20033;-86
2021/07/08 11:04:05;;;;;;;6.00;2.70;;;22.10;65.90;;;;;;4908841;29;20376;-86
2021/07/08 11:06:35;;;;;;;7.05;2.78;;;22.10;66.80;;;;;;4892572;29;20132;-85
2021/07/08 11:09:03;;;;;;;5.05;2.90;;;22.20;66.00;;;;;;4892493;29;20029;-85
2021/07/08 11:11:29;;;;;;;4.53;2.53;;;22.10;65.20;;;;;;4892918;29;20452;-85
2021/07/08 11:13:56;;;;;;;7.45;2.95;;;22.20;65.10;;;;;;4908693;29;20539;-86
2021/07/08 11:16:49;;;;;;;8.27;2.88;;;22.20;66.50;;;;;;4895382;29;20483;-86
2021/07/08 11:19:18;;;;;;;7.13;2.80;;;22.30;67.00;;;;;;4908519;29;20135;-85
2021/07/08 11:22:03;;;;;;;4.65;2.90;;;22.30;63.00;;;;;;4908769;29;20033;-86
2021/07/08 11:24:39;;;;;;;4.53;2.67;;;22.40;64.10;;;;;;4908156;29;20029;-85
2021/07/08 11:27:06;;;;;;;7.72;2.55;;;22.40;64.30;;;;;;4908251;29;20749;-86
2021/07/08 11:29:33;;;;;;;6.90;3.03;;;22.40;63.90;;;;;;4908857;29;20028;-86
2021/07/08 11:31:59;;;;;;;6.32;2.83;;;22.40;64.00;;;;;;4893033;29;20084;-86
2021/07/08 11:34:25;;;;;;;7.65;3.00;;;22.50;63.90;;;;;;4924659;29;20036;-87
2021/07/08 11:36:51;;;;;;;7.55;3.50;;;22.40;63.10;;;;;;4927276;29;20028;-85
2021/07/08 11:39:16;;;;;;;7.13;3.35;;;22.50;64.90;;;;;;4911512;29;20071;-85
2021/07/08 11:41:42;;;;;;;10.65;3.10;;;22.50;66.30;;;;;;4911117;29;20023;-86
2021/07/08 11:44:07;;;;;;;8.82;2.78;;;22.60;64.50;;;;;;4895757;29;20055;-85
2021/07/08 11:46:33;;;;;;;7.85;2.95;;;22.60;62.80;;;;;;4911178;29;20452;-86
2021/07/08 11:48:58;;;;;;;4.97;2.80;;;22.60;62.00;;;;;;4907408;29;20036;-85
2021/07/08 11:51:32;;;;;;;8.40;3.10;;;22.60;62.50;;;;;;4892451;29;20037;-86
2021/07/08 11:53:58;;;;;;;9.30;3.10;;;22.60;64.40;;;;;;4893485;29;20582;-86
2021/07/08 11:56:24;;;;;;;7.35;3.42;;;22.60;64.40;;;;;;4892143;29;20131;-86
2021/07/08 11:58:49;;;;;;;8.05;3.20;;;22.60;64.90;;;;;;4892023;29;20059;-86
2021/07/08 12:01:17;;;;;;;7.55;3.72;;;22.60;64.20;;;;;;4891884;29;20068;-86
2021/07/08 12:03:49;;;;;;;7.15;3.20;;;22.60;65.00;;;;;;4892429;29;20139;-86
2021/07/08 12:06:20;;;;;;;8.68;3.25;;;22.60;64.30;;;;;;4893061;29;20445;-86
2021/07/08 12:08:50;;;;;;;5.47;2.88;;;22.60;63.30;;;;;;4895740;29;20058;-85
2021/07/08 12:11:28;;;;;;;8.05;2.92;;;22.60;63.10;;;;;;4910826;29;20067;-85
2021/07/08 12:14:00;;;;;;;7.45;3.42;;;22.60;63.60;;;;;;4896188;29;20040;-86
2021/07/08 12:16:36;;;;;;;6.40;3.22;;;22.70;63.70;;;;;;4951557;23;20042;-86
2021/07/08 12:19:27;;;;;;;5.75;3.20;;;22.80;65.50;;;;;;4971329;28;20038;-86
2021/07/08 12:21:57;;;;;;;5.55;3.40;;;22.70;64.40;;;;;;4987871;28;20157;-86
2021/07/08 12:24:39;;;;;;;6.70;4.03;;;22.70;64.10;;;;;;4955205;28;20035;-86
2021/07/08 12:27:15;;;;;;;7.63;3.42;;;22.70;63.70;;;;;;4968368;28;20038;-85
2021/07/08 12:29:52;;;;;;;9.05;3.58;;;22.80;66.00;;;;;;4968456;28;20033;-86
2021/07/08 12:32:26;;;;;;;8.35;4.22;;;22.80;64.20;;;;;;4938136;28;20035;-85
2021/07/08 12:34:55;;;;;;;9.68;4.28;;;22.70;64.40;;;;;;4937386;28;20041;-86
2021/07/08 12:37:31;;;;;;;10.23;4.03;;;22.80;64.60;;;;;;4952678;28;20042;-86
2021/07/08 12:40:14;;;;;;;9.57;3.97;;;22.70;64.90;;;;;;4952160;28;20790;-86
2021/07/08 12:42:43;;;;;;;8.90;3.95;;;22.70;65.20;;;;;;4953670;28;20031;-85
2021/07/08 12:45:52;;;;;;;11.35;4.57;;;22.80;65.40;;;;;;4952096;28;20023;-87
2021/07/08 12:48:36;;;;;;;10.52;4.13;;;22.90;64.80;;;;;;4967488;28;20026;-86